createdAt,value
2019-05-14T00:00:21.624Z,9.46
2019-05-14T00:02:48.804Z,9.53
2019-05-14T00:05:15.883Z,9.53
2019-05-14T00:07:42.876Z,9.52
2019-05-14T00:10:11.858Z,9.52
2019-05-14T00:12:39.178Z,9.53
2019-05-14T00:15:06.364Z,9.50
2019-05-14T00:17:33.380Z,9.48
2019-05-14T00:20:07.439Z,9.50
2019-05-14T00:22:29.344Z,9.48
2019-05-14T00:24:56.395Z,9.47
2019-05-14T00:27:23.378Z,9.47
2019-05-14T00:29:51.792Z,9.46
2019-05-14T00:32:21.476Z,9.47
2019-05-14T00:34:48.035Z,9.43
2019-05-14T00:37:15.048Z,9.29
2019-05-14T00:39:42.073Z,9.29
2019-05-14T00:42:09.092Z,9.31
2019-05-14T00:44:36.099Z,9.32
2019-05-14T00:47:03.139Z,9.32
2019-05-14T00:49:31.670Z,9.31
2019-05-14T00:51:58.957Z,9.31
2019-05-14T00:54:25.961Z,9.29
2019-05-14T00:56:52.967Z,9.32
2019-05-14T00:59:21.642Z,9.33
2019-05-14T01:01:48.804Z,9.29
2019-05-14T01:04:15.814Z,9.25
2019-05-14T01:06:42.797Z,9.25
2019-05-14T01:09:11.437Z,9.16
2019-05-14T01:11:38.633Z,9.17
2019-05-14T01:14:05.627Z,9.15
2019-05-14T01:16:32.648Z,9.08
2019-05-14T01:19:01.824Z,9.00
2019-05-14T01:21:28.521Z,9.16
2019-05-14T01:23:55.546Z,9.06
2019-05-14T01:26:22.594Z,8.98
2019-05-14T01:28:51.421Z,8.98
2019-05-14T01:31:18.512Z,8.98
2019-05-14T01:33:45.526Z,8.98
2019-05-14T01:36:12.517Z,9.01
2019-05-14T01:38:41.724Z,9.04
2019-05-14T01:41:08.476Z,8.98
2019-05-14T01:43:35.468Z,8.97
2019-05-14T01:46:02.631Z,8.95
2019-05-14T01:48:31.286Z,9.01
2019-05-14T01:50:58.465Z,8.95
2019-05-14T01:53:25.509Z,8.99
2019-05-14T01:55:52.563Z,8.94
2019-05-14T01:58:21.873Z,8.94
2019-05-14T02:00:48.600Z,8.86
2019-05-14T02:03:15.654Z,8.82
2019-05-14T02:05:42.651Z,8.82
2019-05-14T02:08:11.980Z,9.00
2019-05-14T02:10:38.602Z,9.00
2019-05-14T02:13:05.624Z,8.95
2019-05-14T02:15:39.655Z,8.95
2019-05-14T02:18:02.367Z,8.88
2019-05-14T02:20:31.911Z,8.92
2019-05-14T02:22:58.541Z,8.92
2019-05-14T02:25:25.621Z,8.99
2019-05-14T02:27:52.611Z,8.95
2019-05-14T02:30:24.827Z,8.93
2019-05-14T02:32:49.744Z,8.87
2019-05-14T02:35:20.021Z,8.87
2019-05-14T02:37:45.973Z,8.89
2019-05-14T02:40:13.334Z,8.92
2019-05-14T02:42:40.565Z,8.87
2019-05-14T02:45:08.980Z,8.85
2019-05-14T02:47:39.334Z,8.92
2019-05-14T02:50:05.178Z,8.92
2019-05-14T02:52:32.178Z,8.78
2019-05-14T02:54:59.813Z,8.79
2019-05-14T02:57:30.121Z,8.84
2019-05-14T02:59:59.464Z,8.85
2019-05-14T03:02:24.656Z,8.86
2019-05-14T03:04:51.661Z,8.88
2019-05-14T03:07:19.497Z,8.83
2019-05-14T03:09:49.855Z,8.83
2019-05-14T03:12:15.614Z,8.83
2019-05-14T03:14:42.673Z,8.86
2019-05-14T03:17:10.613Z,8.85
2019-05-14T03:19:40.816Z,8.80
2019-05-14T03:22:10.116Z,8.81
2019-05-14T03:24:35.802Z,8.78
2019-05-14T03:27:02.948Z,8.70
2019-05-14T03:29:31.015Z,8.59
2019-05-14T03:32:03.116Z,8.49
2019-05-14T03:34:32.349Z,8.49
2019-05-14T03:36:56.082Z,8.54
2019-05-14T03:39:23.085Z,8.54
2019-05-14T03:41:50.310Z,8.52
2019-05-14T03:44:19.939Z,8.57
2019-05-14T03:46:54.595Z,8.49
2019-05-14T03:49:15.316Z,8.49
2019-05-14T03:51:42.312Z,8.62
2019-05-14T03:54:13.108Z,8.51
2019-05-14T03:56:40.373Z,8.58
2019-05-14T03:59:09.577Z,8.58
2019-05-14T04:01:39.710Z,8.55
2019-05-14T04:04:05.400Z,8.49
2019-05-14T04:06:32.731Z,8.55
2019-05-14T04:09:00.799Z,8.65
2019-05-14T04:11:30.161Z,8.71
2019-05-14T04:14:00.302Z,8.74
2019-05-14T04:16:29.594Z,8.76
2019-05-14T04:19:00.231Z,8.80
2019-05-14T04:21:30.174Z,8.71
2019-05-14T04:23:59.728Z,8.80
2019-05-14T04:26:30.189Z,8.77
2019-05-14T04:29:00.448Z,8.74
2019-05-14T04:31:30.857Z,8.84
2019-05-14T04:34:00.221Z,8.87
2019-05-14T04:36:30.003Z,8.90
2019-05-14T04:38:56.191Z,8.90
2019-05-14T04:41:23.190Z,9.02
2019-05-14T04:43:50.579Z,9.06
2019-05-14T04:46:19.885Z,9.14
2019-05-14T04:48:50.090Z,9.48
2019-05-14T04:51:15.629Z,9.48
2019-05-14T04:53:42.659Z,9.69
2019-05-14T04:56:10.186Z,9.89
2019-05-14T04:58:40.848Z,10.05
2019-05-14T05:01:09.550Z,10.20
2019-05-14T05:03:35.136Z,10.29
2019-05-14T05:06:02.163Z,10.55
2019-05-14T05:08:30.564Z,10.77
2019-05-14T05:11:00.117Z,11.00
2019-05-14T05:13:29.275Z,11.09
2019-05-14T05:15:59.103Z,11.16
2019-05-14T05:18:25.042Z,11.31
2019-05-14T05:20:52.044Z,11.38
2019-05-14T05:23:19.108Z,11.51
2019-05-14T05:25:46.175Z,11.68
2019-05-14T05:28:13.185Z,11.72
2019-05-14T05:30:40.181Z,11.64
2019-05-14T05:33:09.064Z,11.69
2019-05-14T05:35:40.266Z,11.77
2019-05-14T05:38:05.061Z,11.60
2019-05-14T05:40:32.074Z,11.64
2019-05-14T05:42:59.056Z,11.65
2019-05-14T05:45:26.041Z,11.71
2019-05-14T05:47:57.458Z,11.82
2019-05-14T05:50:21.954Z,11.99
2019-05-14T05:52:50.599Z,11.82
2019-05-14T05:55:19.105Z,12.11
2019-05-14T05:57:49.062Z,12.15
2019-05-14T06:00:22.271Z,12.46
2019-05-14T06:02:49.257Z,12.13
2019-05-14T06:05:18.516Z,12.47
2019-05-14T06:07:45.278Z,12.45
2019-05-14T06:10:12.306Z,12.49
2019-05-14T06:12:39.314Z,12.53
2019-05-14T06:15:08.690Z,12.72
2019-05-14T06:17:35.889Z,12.69
2019-05-14T06:20:03.378Z,12.54
2019-05-14T06:22:30.372Z,12.67
2019-05-14T06:24:58.675Z,12.80
2019-05-14T06:27:26.003Z,13.01
2019-05-14T06:29:54.463Z,13.08
2019-05-14T06:32:21.609Z,13.32
2019-05-14T06:34:49.129Z,13.44
2019-05-14T06:37:18.882Z,13.60
2019-05-14T06:39:45.161Z,13.49
2019-05-14T06:42:12.166Z,13.71
2019-05-14T06:44:39.167Z,13.68
2019-05-14T06:47:06.196Z,13.66
2019-05-14T06:49:33.177Z,13.77
2019-05-14T06:52:00.171Z,13.63
2019-05-14T06:54:29.341Z,13.15
2019-05-14T06:56:58.226Z,13.47
2019-05-14T06:59:24.937Z,13.59
2019-05-14T07:01:51.934Z,13.62
2019-05-14T07:04:18.926Z,13.57
2019-05-14T07:06:48.387Z,13.44
2019-05-14T07:09:15.090Z,13.47
2019-05-14T07:11:42.125Z,13.58
2019-05-14T07:14:11.593Z,13.59
2019-05-14T07:16:39.050Z,13.72
2019-05-14T07:19:06.112Z,14.11
2019-05-14T07:21:33.100Z,14.03
2019-05-14T07:24:00.132Z,14.03
2019-05-14T07:26:29.577Z,14.03
2019-05-14T07:28:56.219Z,13.97
2019-05-14T07:31:23.267Z,13.89
2019-05-14T07:33:50.244Z,14.05
2019-05-14T07:36:18.906Z,14.32
2019-05-14T07:38:49.010Z,13.88
2019-05-14T07:41:15.089Z,14.28
2019-05-14T07:43:42.087Z,14.19
2019-05-14T07:46:09.107Z,14.32
2019-05-14T07:48:36.092Z,14.46
2019-05-14T07:51:03.116Z,14.42
2019-05-14T07:53:38.523Z,14.94
2019-05-14T07:55:59.326Z,14.80
2019-05-14T07:58:28.236Z,15.03
2019-05-14T08:00:55.304Z,14.82
2019-05-14T08:03:22.291Z,14.81
2019-05-14T08:05:49.321Z,14.89
2019-05-14T08:08:18.573Z,15.06
2019-05-14T08:10:45.216Z,14.87
2019-05-14T08:13:12.269Z,15.04
2019-05-14T08:15:39.352Z,15.11
2019-05-14T08:18:08.114Z,15.15
2019-05-14T08:20:35.281Z,15.07
2019-05-14T08:23:02.300Z,15.08
2019-05-14T08:25:29.324Z,15.27
2019-05-14T08:27:58.523Z,15.52
2019-05-14T08:30:25.252Z,15.11
2019-05-14T08:32:52.239Z,15.18
2019-05-14T08:35:19.246Z,15.04
2019-05-14T08:37:46.221Z,14.69
2019-05-14T08:40:16.432Z,14.63
2019-05-14T08:42:42.220Z,14.85
2019-05-14T08:45:13.641Z,14.76
2019-05-14T08:47:39.236Z,14.84
2019-05-14T08:50:08.843Z,14.69
2019-05-14T08:52:35.293Z,14.89
2019-05-14T08:55:10.147Z,14.90
2019-05-14T08:57:31.493Z,14.75
2019-05-14T08:59:59.334Z,14.83
2019-05-14T09:02:28.639Z,14.79
2019-05-14T09:04:55.518Z,14.75
2019-05-14T09:07:22.513Z,14.63
2019-05-14T09:09:49.493Z,14.62
2019-05-14T09:12:18.592Z,14.86
2019-05-14T09:14:45.500Z,14.90
2019-05-14T09:17:14.810Z,14.95
2019-05-14T09:19:57.665Z,14.85
2019-05-14T09:22:10.358Z,15.00
2019-05-14T09:24:38.699Z,14.92
2019-05-14T09:27:08.237Z,14.94
2019-05-14T09:29:35.072Z,14.79
2019-05-14T09:32:02.067Z,14.49
2019-05-14T09:34:29.260Z,14.68
2019-05-14T09:36:59.152Z,14.75
2019-05-14T09:39:25.329Z,14.62
2019-05-14T09:41:52.308Z,14.70
2019-05-14T09:44:19.333Z,14.64
2019-05-14T09:46:46.458Z,14.77
2019-05-14T09:49:13.401Z,14.73
2019-05-14T09:51:40.436Z,14.88
2019-05-14T09:54:08.570Z,15.04
2019-05-14T09:56:35.778Z,15.06
2019-05-14T09:59:02.875Z,15.11
2019-05-14T10:01:29.945Z,15.00
2019-05-14T10:03:59.244Z,15.05
2019-05-14T10:06:28.282Z,14.99
2019-05-14T10:08:54.711Z,14.86
2019-05-14T10:11:21.673Z,14.97
2019-05-14T10:13:48.632Z,14.94
2019-05-14T10:16:15.643Z,14.95
2019-05-14T10:18:44.516Z,15.12
2019-05-14T10:21:11.675Z,15.11
2019-05-14T10:23:39.103Z,15.14
2019-05-14T10:26:08.895Z,15.24
2019-05-14T10:28:35.161Z,15.00
2019-05-14T10:31:03.801Z,15.15
2019-05-14T10:33:30.968Z,15.15
2019-05-14T10:35:58.861Z,15.35
2019-05-14T10:38:26.006Z,15.48
2019-05-14T10:40:52.977Z,15.16
2019-05-14T10:43:19.939Z,15.37
2019-05-14T10:45:49.286Z,15.19
2019-05-14T10:48:15.850Z,14.87
2019-05-14T10:50:56.259Z,15.24
2019-05-14T10:53:11.969Z,15.45
2019-05-14T10:55:38.927Z,15.09
2019-05-14T10:58:05.885Z,15.12
2019-05-14T11:00:32.868Z,15.09
2019-05-14T11:03:00.237Z,14.90
2019-05-14T11:05:28.161Z,15.01
2019-05-14T11:07:55.297Z,15.19
2019-05-14T11:10:22.268Z,15.13
2019-05-14T11:12:50.686Z,15.04
2019-05-14T11:15:19.087Z,14.91
2019-05-14T11:17:48.731Z,14.89
2019-05-14T11:20:15.514Z,14.81
2019-05-14T11:22:42.524Z,14.76
2019-05-14T11:25:09.782Z,14.89
2019-05-14T11:27:38.834Z,15.17
2019-05-14T11:30:08.722Z,15.10
2019-05-14T11:32:35.308Z,15.18
2019-05-14T11:35:02.348Z,15.31
2019-05-14T11:37:29.322Z,15.24
2019-05-14T11:39:58.131Z,14.93
2019-05-14T11:42:25.202Z,15.09
2019-05-14T11:44:52.173Z,15.06
2019-05-14T11:47:19.147Z,15.22
2019-05-14T11:49:46.128Z,15.00
2019-05-14T11:52:13.287Z,15.29
2019-05-14T11:54:41.157Z,15.18
2019-05-14T11:57:11.641Z,15.21
2019-05-14T11:59:39.080Z,15.06
2019-05-14T12:02:06.082Z,15.05
2019-05-14T12:04:33.055Z,15.18
2019-05-14T12:07:00.043Z,15.04
2019-05-14T12:09:28.388Z,15.11
2019-05-14T12:11:55.505Z,15.32
2019-05-14T12:14:22.495Z,15.42
2019-05-14T12:16:49.620Z,15.28
2019-05-14T12:19:18.770Z,15.24
2019-05-14T12:22:02.699Z,15.47
2019-05-14T12:24:14.438Z,15.41
2019-05-14T12:26:41.467Z,15.25
2019-05-14T12:29:09.965Z,14.96
2019-05-14T12:31:38.602Z,15.15
2019-05-14T12:34:05.765Z,15.45
2019-05-14T12:36:32.737Z,15.05
2019-05-14T12:38:59.692Z,15.08
2019-05-14T12:41:28.991Z,14.71
2019-05-14T12:43:55.826Z,14.62
2019-05-14T12:46:22.795Z,14.70
2019-05-14T12:48:49.860Z,14.70
2019-05-14T12:51:19.750Z,14.58
2019-05-14T12:53:48.754Z,14.41
2019-05-14T12:56:18.564Z,14.37
2019-05-14T12:58:45.856Z,14.36
2019-05-14T13:01:13.153Z,14.23
2019-05-14T13:03:40.179Z,14.42
2019-05-14T13:06:10.019Z,14.34
2019-05-14T13:08:38.729Z,14.31
2019-05-14T13:11:05.328Z,14.46
2019-05-14T13:13:32.319Z,14.38
2019-05-14T13:16:04.473Z,14.37
2019-05-14T13:18:31.691Z,14.35
2019-05-14T13:20:58.643Z,13.88
2019-05-14T13:23:25.669Z,14.00
2019-05-14T13:25:52.653Z,14.26
2019-05-14T13:28:19.632Z,14.27
2019-05-14T13:30:48.860Z,14.09
2019-05-14T13:33:15.542Z,14.18
2019-05-14T13:35:42.545Z,14.12
2019-05-14T13:38:14.394Z,13.90
2019-05-14T13:40:41.007Z,14.00
2019-05-14T13:43:09.854Z,14.04
2019-05-14T13:45:39.177Z,14.02
2019-05-14T13:48:08.237Z,13.89
2019-05-14T13:50:34.975Z,13.88
2019-05-14T13:53:06.720Z,13.83
2019-05-14T13:55:30.951Z,13.85
2019-05-14T13:57:59.856Z,13.94
2019-05-14T14:00:26.863Z,14.03
2019-05-14T14:02:53.883Z,14.04
2019-05-14T14:05:20.872Z,13.83
2019-05-14T14:07:48.556Z,13.71
2019-05-14T14:10:15.851Z,13.53
2019-05-14T14:12:42.817Z,13.70
2019-05-14T14:15:10.408Z,13.81
2019-05-14T14:17:39.052Z,13.71
2019-05-14T14:20:08.296Z,13.77
2019-05-14T14:22:35.323Z,13.79
2019-05-14T14:25:02.330Z,13.73
2019-05-14T14:27:30.074Z,13.74
2019-05-14T14:29:58.544Z,13.74
2019-05-14T14:32:25.653Z,13.80
2019-05-14T14:34:52.611Z,13.74
2019-05-14T14:37:19.587Z,13.71
2019-05-14T14:39:48.693Z,13.76
2019-05-14T14:42:15.494Z,13.71
2019-05-14T14:44:42.463Z,13.73
2019-05-14T14:47:09.459Z,13.66
2019-05-14T14:49:42.212Z,13.51
2019-05-14T14:52:05.376Z,13.68
2019-05-14T14:54:32.348Z,13.54
2019-05-14T14:56:59.390Z,13.73
2019-05-14T14:59:26.353Z,13.47
2019-05-14T15:01:53.312Z,13.15
2019-05-14T15:04:20.396Z,13.37
2019-05-14T15:06:50.928Z,13.52
2019-05-14T15:09:16.298Z,13.62
2019-05-14T15:11:43.314Z,13.52
2019-05-14T15:14:10.290Z,13.54
2019-05-14T15:16:39.214Z,13.69
2019-05-14T15:19:06.190Z,13.51
2019-05-14T15:21:33.192Z,13.47
2019-05-14T15:24:09.775Z,13.56
2019-05-14T15:26:29.118Z,13.59
2019-05-14T15:28:58.376Z,13.61
2019-05-14T15:31:25.052Z,13.56
2019-05-14T15:33:52.010Z,13.38
2019-05-14T15:36:19.635Z,13.44
2019-05-14T15:38:48.644Z,13.42
2019-05-14T15:41:15.763Z,13.36
2019-05-14T15:43:42.745Z,13.32
2019-05-14T15:46:09.794Z,13.36
2019-05-14T15:48:39.523Z,13.21
2019-05-14T15:51:05.690Z,13.39
2019-05-14T15:53:32.668Z,13.40
2019-05-14T15:55:59.656Z,13.42
2019-05-14T15:58:29.928Z,13.30
2019-05-14T16:00:55.522Z,13.25
2019-05-14T16:03:22.490Z,13.34
2019-05-14T16:05:49.465Z,13.28
2019-05-14T16:08:22.155Z,13.39
2019-05-14T16:10:45.342Z,13.30
2019-05-14T16:13:12.321Z,13.26
2019-05-14T16:15:39.407Z,13.17
2019-05-14T16:18:14.893Z,13.17
2019-05-14T16:20:35.304Z,13.01
2019-05-14T16:23:02.288Z,12.99
2019-05-14T16:25:29.289Z,12.80
2019-05-14T16:27:58.790Z,12.75
2019-05-14T16:30:25.223Z,12.74
2019-05-14T16:32:52.185Z,12.86
2019-05-14T16:41:18.487Z,12.34
2019-05-14T16:43:45.021Z,12.37
2019-05-14T16:46:11.592Z,12.16
2019-05-14T16:48:39.696Z,12.15
2019-05-14T16:51:08.719Z,12.17
2019-05-14T16:53:34.950Z,12.22
2019-05-14T16:56:01.643Z,12.02
2019-05-14T16:58:29.260Z,12.08
2019-05-14T17:00:58.699Z,12.01
2019-05-14T17:03:24.465Z,11.95
2019-05-14T17:05:51.062Z,12.02
2019-05-14T17:08:18.997Z,11.98
2019-05-14T17:10:48.066Z,12.02
2019-05-14T17:13:14.240Z,12.04
2019-05-14T17:15:40.770Z,12.03
2019-05-14T17:18:08.896Z,11.86
2019-05-14T17:20:35.656Z,11.83
2019-05-14T17:23:02.265Z,11.97
2019-05-14T17:25:30.534Z,11.84
2019-05-14T17:27:59.344Z,11.85
2019-05-14T17:30:25.729Z,11.97
2019-05-14T17:32:52.258Z,11.83
2019-05-14T17:35:19.570Z,11.77
2019-05-14T17:37:48.380Z,11.86
2019-05-14T17:40:14.928Z,11.79
2019-05-14T17:42:41.647Z,11.81
2019-05-14T17:45:08.771Z,11.86
2019-05-14T17:47:35.365Z,11.87
2019-05-14T17:50:01.908Z,11.86
2019-05-14T17:52:30.122Z,11.72
2019-05-14T17:54:56.950Z,11.75
2019-05-14T17:57:25.152Z,11.72
2019-05-14T17:59:52.017Z,11.79
2019-05-14T18:02:19.196Z,11.56
2019-05-14T18:04:48.546Z,11.65
2019-05-14T18:07:14.412Z,11.47
2019-05-14T18:09:41.048Z,11.51
2019-05-14T18:12:08.161Z,11.57
2019-05-14T18:14:34.918Z,11.63
2019-05-14T18:17:01.426Z,11.66
2019-05-14T18:19:28.907Z,11.55
2019-05-14T18:21:55.690Z,11.56
2019-05-14T18:24:22.338Z,11.44
2019-05-14T18:26:48.998Z,11.47
2019-05-14T18:29:18.681Z,11.50
2019-05-14T18:31:45.630Z,11.54
2019-05-14T18:34:12.457Z,11.44
2019-05-14T18:36:39.630Z,11.46
2019-05-14T18:39:09.070Z,11.41
2019-05-14T18:41:34.827Z,11.34
2019-05-14T18:44:01.333Z,11.35
2019-05-14T18:46:28.543Z,11.38
2019-05-14T18:48:55.369Z,11.27
2019-05-14T18:51:21.893Z,11.39
2019-05-14T18:53:49.062Z,11.13
2019-05-14T18:56:23.390Z,11.16
2019-05-14T18:58:44.177Z,11.22
2019-05-14T19:01:10.712Z,11.00
2019-05-14T19:03:39.720Z,11.12
2019-05-14T19:06:05.712Z,11.11
2019-05-14T19:08:32.426Z,11.11
2019-05-14T19:10:59.518Z,10.86
2019-05-14T19:13:28.170Z,10.95
2019-05-14T19:15:54.776Z,10.86
2019-05-14T19:18:21.277Z,10.89
2019-05-14T19:20:48.634Z,10.80
2019-05-14T19:23:15.508Z,10.87
2019-05-14T19:25:42.096Z,10.82
2019-05-14T19:28:08.959Z,10.87
2019-05-14T19:30:37.976Z,10.78
2019-05-14T19:33:04.058Z,10.81
2019-05-14T19:35:30.695Z,10.81
2019-05-14T19:37:59.358Z,10.77
2019-05-14T19:40:28.089Z,10.68
2019-05-14T19:42:54.213Z,10.77
2019-05-14T19:45:20.751Z,10.68
2019-05-14T19:47:49.289Z,10.72
2019-05-14T19:50:15.783Z,10.53
2019-05-14T19:52:42.310Z,10.55
2019-05-14T19:55:09.026Z,10.49
2019-05-14T19:57:35.583Z,10.37
2019-05-14T20:00:02.126Z,10.25
2019-05-14T20:02:28.794Z,10.20
2019-05-14T20:04:55.418Z,10.29
2019-05-14T20:07:22.015Z,10.22
2019-05-14T20:09:48.675Z,10.23
2019-05-14T20:12:15.231Z,10.20
2019-05-14T20:14:41.833Z,10.11
2019-05-14T20:17:08.923Z,10.10
2019-05-14T20:19:35.758Z,10.05
2019-05-14T20:22:03.490Z,10.06
2019-05-14T20:24:31.034Z,10.06
2019-05-14T20:27:08.393Z,9.98
2019-05-14T20:29:26.935Z,9.87
2019-05-14T20:31:53.665Z,9.91
2019-05-14T20:34:20.343Z,9.87
2019-05-14T20:36:48.158Z,9.89
2019-05-14T20:39:15.097Z,9.93
2019-05-14T20:41:41.825Z,9.84
2019-05-14T20:44:08.505Z,9.91
2019-05-14T20:46:35.553Z,9.93
2019-05-14T20:49:02.217Z,9.95
2019-05-14T20:51:30.436Z,9.84
2019-05-14T20:53:58.071Z,9.70
2019-05-14T20:56:24.812Z,9.79
2019-05-14T20:58:51.496Z,9.82
2019-05-14T21:01:18.558Z,9.73
2019-05-14T21:03:45.404Z,9.69
2019-05-14T21:06:12.149Z,9.83
2019-05-14T21:08:38.831Z,9.76
2019-05-14T21:11:08.077Z,9.76
2019-05-14T21:13:34.123Z,9.75
2019-05-14T21:16:00.819Z,9.87
2019-05-14T21:18:35.116Z,9.68
2019-05-14T21:20:56.372Z,9.72
2019-05-14T21:23:23.060Z,9.67
2019-05-14T21:25:49.745Z,9.73
2019-05-14T21:28:16.446Z,9.72
2019-05-14T21:30:43.137Z,9.67
2019-05-14T21:33:09.853Z,9.71
2019-05-14T21:35:38.740Z,9.63
2019-05-14T21:38:05.143Z,9.61
2019-05-14T21:40:32.230Z,9.65
2019-05-14T21:42:59.058Z,9.51
2019-05-14T21:45:25.732Z,9.58
2019-05-14T21:47:52.418Z,9.64
2019-05-14T21:50:19.134Z,9.62
2019-05-14T21:52:45.820Z,9.51
2019-05-14T21:55:12.619Z,9.51
2019-05-14T21:57:53.062Z,9.63
2019-05-14T22:00:10.436Z,9.50
2019-05-14T22:02:38.398Z,9.54
2019-05-14T22:05:05.333Z,9.61
2019-05-14T22:07:32.018Z,9.59
2019-05-14T22:09:58.721Z,9.62
2019-05-14T22:12:25.454Z,9.58
2019-05-14T22:14:52.160Z,9.51
2019-05-14T22:17:18.856Z,9.64
2019-05-14T22:19:45.565Z,9.57
2019-05-14T22:22:12.266Z,9.62
2019-05-14T22:24:38.985Z,9.57
2019-05-14T22:27:05.695Z,9.49
2019-05-14T22:29:32.394Z,9.46
2019-05-14T22:31:59.103Z,9.41
2019-05-14T22:34:27.995Z,9.52
2019-05-14T22:36:54.313Z,9.52
2019-05-14T22:39:21.034Z,9.35
2019-05-14T22:41:47.774Z,9.49
2019-05-14T22:44:14.465Z,9.37
2019-05-14T22:46:41.170Z,9.48
2019-05-14T22:49:09.152Z,9.45
2019-05-14T22:51:38.189Z,9.52
2019-05-14T22:54:04.534Z,9.43
2019-05-14T22:56:31.204Z,9.54
2019-05-14T22:58:58.270Z,9.49
2019-05-14T23:01:25.080Z,9.38
2019-05-14T23:03:51.778Z,9.41
2019-05-14T23:06:18.927Z,9.42
2019-05-14T23:08:45.705Z,9.39
2019-05-14T23:11:12.382Z,9.41
2019-05-14T23:13:39.346Z,9.38
2019-05-14T23:16:08.099Z,9.43
2019-05-14T23:18:34.614Z,9.40
2019-05-14T23:21:01.315Z,9.38
2019-05-14T23:23:28.252Z,9.44
2019-05-14T23:25:54.977Z,9.24
2019-05-14T23:28:21.670Z,9.36
2019-05-14T23:30:48.388Z,9.38
2019-05-14T23:33:15.178Z,9.10
2019-05-14T23:35:42.099Z,9.25
2019-05-14T23:38:08.909Z,9.27
2019-05-14T23:40:35.676Z,9.25
2019-05-14T23:43:02.383Z,9.41
2019-05-14T23:45:30.291Z,9.32
2019-05-14T23:47:58.539Z,9.39
2019-05-14T23:50:25.500Z,9.37
2019-05-14T23:52:52.214Z,9.42
2019-05-14T23:55:18.906Z,9.37
2019-05-14T23:57:47.958Z,9.44
